sensor_id;sensor_type;location;lat;lon;timestamp;pressure;altitude;pressure_sealevel;temperature;humidity
20860;BME280;10590;48.154;11.514;2023-05-25T00:03:19;95955.84;;;11.76;58.81
20860;BME280;10590;48.154;11.514;2023-05-25T00:08:43;95952.91;;;11.87;58.07
20860;BME280;10590;48.154;11.514;2023-05-25T00:14:06;95962.47;;;11.70;58.98
20860;BME280;10590;48.154;11.514;2023-05-25T00:19:28;95962.66;;;11.91;59.18
20860;BME280;10590;48.154;11.514;2023-05-25T00:24:53;95966.13;;;11.26;60.51
20860;BME280;10590;48.154;11.514;2023-05-25T00:30:15;95956.16;;;11.58;59.85
20860;BME280;10590;48.154;11.514;2023-05-25T00:35:37;95946.28;;;11.84;58.99
20860;BME280;10590;48.154;11.514;2023-05-25T00:41:00;95955.25;;;11.79;59.45
20860;BME280;10590;48.154;11.514;2023-05-25T00:46:22;95947.84;;;11.68;59.54
20860;BME280;10590;48.154;11.514;2023-05-25T00:51:48;95934.31;;;11.56;60.18
20860;BME280;10590;48.154;11.514;2023-05-25T00:57:17;95936.97;;;11.56;60.45
20860;BME280;10590;48.154;11.514;2023-05-25T01:02:42;95933.34;;;11.34;61.11
20860;BME280;10590;48.154;11.514;2023-05-25T01:08:07;95940.28;;;11.53;61.13
20860;BME280;10590;48.154;11.514;2023-05-25T01:13:31;95942.44;;;11.33;61.89
20860;BME280;10590;48.154;11.514;2023-05-25T01:18:57;95946.78;;;11.21;62.57
20860;BME280;10590;48.154;11.514;2023-05-25T01:24:27;95942.72;;;11.23;62.72
20860;BME280;10590;48.154;11.514;2023-05-25T01:29:52;95937.56;;;11.35;62.58
20860;BME280;10590;48.154;11.514;2023-05-25T01:35:15;95941.53;;;11.46;62.53
20860;BME280;10590;48.154;11.514;2023-05-25T01:40:40;95939.81;;;11.68;62.44
20860;BME280;10590;48.154;11.514;2023-05-25T01:46:08;95947.84;;;11.68;62.56
20860;BME280;10590;48.154;11.514;2023-05-25T01:51:36;95964.38;;;11.78;63.04
20860;BME280;10590;48.154;11.514;2023-05-25T01:57:05;95954.41;;;11.44;64.70
20860;BME280;10590;48.154;11.514;2023-05-25T02:02:29;95958.38;;;11.64;64.73
20860;BME280;10590;48.154;11.514;2023-05-25T02:07:52;95948.13;;;11.58;65.65
20860;BME280;10590;48.154;11.514;2023-05-25T02:13:15;95942.31;;;11.47;66.43
20860;BME280;10590;48.154;11.514;2023-05-25T02:18:37;95941.19;;;11.39;68.11
20860;BME280;10590;48.154;11.514;2023-05-25T02:23:59;95941.09;;;11.05;69.93
20860;BME280;10590;48.154;11.514;2023-05-25T02:29:22;95943.09;;;11.39;69.45
20860;BME280;10590;48.154;11.514;2023-05-25T02:34:44;95928.78;;;11.35;70.64
20860;BME280;10590;48.154;11.514;2023-05-25T02:40:08;95929.75;;;11.65;70.68
20860;BME280;10590;48.154;11.514;2023-05-25T02:45:32;95930.38;;;11.44;72.18
20860;BME280;10590;48.154;11.514;2023-05-25T02:50:54;95924.41;;;11.65;72.62
20860;BME280;10590;48.154;11.514;2023-05-25T02:56:16;95895.16;;;11.60;74.13
20860;BME280;10590;48.154;11.514;2023-05-25T03:01:39;95928.34;;;11.76;75.02
20860;BME280;10590;48.154;11.514;2023-05-25T03:07:01;95923.63;;;11.73;75.69
20860;BME280;10590;48.154;11.514;2023-05-25T03:12:23;95935.25;;;11.60;77.24
20860;BME280;10590;48.154;11.514;2023-05-25T03:17:46;95939.66;;;11.64;77.51
20860;BME280;10590;48.154;11.514;2023-05-25T03:23:09;95937.72;;;11.30;78.92
20860;BME280;10590;48.154;11.514;2023-05-25T03:28:31;95922.66;;;11.34;78.82
20860;BME280;10590;48.154;11.514;2023-05-25T03:33:55;95939.50;;;11.52;77.67
20860;BME280;10590;48.154;11.514;2023-05-25T03:39:17;95948.00;;;11.71;76.77
20860;BME280;10590;48.154;11.514;2023-05-25T03:44:40;95939.00;;;11.41;78.26
20860;BME280;10590;48.154;11.514;2023-05-25T03:50:07;95940.88;;;11.32;78.67
20860;BME280;10590;48.154;11.514;2023-05-25T03:55:29;95956.31;;;11.61;77.50
20860;BME280;10590;48.154;11.514;2023-05-25T04:00:51;95952.91;;;11.95;76.06
20860;BME280;10590;48.154;11.514;2023-05-25T04:06:16;95959.94;;;11.65;76.19
20860;BME280;10590;48.154;11.514;2023-05-25T04:11:39;95948.34;;;11.96;75.28
20860;BME280;10590;48.154;11.514;2023-05-25T04:17:01;95955.88;;;11.94;75.66
20860;BME280;10590;48.154;11.514;2023-05-25T04:22:25;95969.22;;;11.68;76.92
20860;BME280;10590;48.154;11.514;2023-05-25T04:27:47;95973.97;;;11.79;76.63
20860;BME280;10590;48.154;11.514;2023-05-25T04:33:09;95981.41;;;12.17;75.33
20860;BME280;10590;48.154;11.514;2023-05-25T04:38:33;95975.06;;;12.13;75.80
20860;BME280;10590;48.154;11.514;2023-05-25T04:43:55;95969.72;;;12.30;75.02
20860;BME280;10590;48.154;11.514;2023-05-25T04:49:18;95970.84;;;12.21;75.52
20860;BME280;10590;48.154;11.514;2023-05-25T04:54:41;95963.75;;;12.25;75.58
20860;BME280;10590;48.154;11.514;2023-05-25T05:00:04;95971.59;;;12.47;74.64
20860;BME280;10590;48.154;11.514;2023-05-25T05:05:27;95979.03;;;12.16;75.50
20860;BME280;10590;48.154;11.514;2023-05-25T05:10:51;95976.66;;;12.23;75.67
20860;BME280;10590;48.154;11.514;2023-05-25T05:16:14;96003.25;;;12.28;75.56
20860;BME280;10590;48.154;11.514;2023-05-25T05:21:36;95993.66;;;12.18;75.83
20860;BME280;10590;48.154;11.514;2023-05-25T05:27:00;95993.97;;;12.34;75.53
20860;BME280;10590;48.154;11.514;2023-05-25T05:32:23;96012.78;;;12.72;73.86
20860;BME280;10590;48.154;11.514;2023-05-25T05:37:45;96007.59;;;12.75;73.69
20860;BME280;10590;48.154;11.514;2023-05-25T05:43:11;96014.25;;;12.00;76.62
20860;BME280;10590;48.154;11.514;2023-05-25T05:48:34;96012.69;;;12.34;75.34
20860;BME280;10590;48.154;11.514;2023-05-25T05:53:55;96005.44;;;12.43;75.76
20860;BME280;10590;48.154;11.514;2023-05-25T05:59:19;96023.38;;;12.51;75.32
20860;BME280;10590;48.154;11.514;2023-05-25T06:04:42;96015.53;;;12.29;76.31
20860;BME280;10590;48.154;11.514;2023-05-25T06:10:06;96009.06;;;12.38;75.94
20860;BME280;10590;48.154;11.514;2023-05-25T06:15:29;96020.34;;;12.79;74.52
20860;BME280;10590;48.154;11.514;2023-05-25T06:20:51;96027.59;;;12.78;73.99
20860;BME280;10590;48.154;11.514;2023-05-25T06:26:13;96033.91;;;12.73;74.15
20860;BME280;10590;48.154;11.514;2023-05-25T06:31:36;96030.63;;;12.42;75.36
20860;BME280;10590;48.154;11.514;2023-05-25T06:36:58;96021.31;;;12.65;74.72
20860;BME280;10590;48.154;11.514;2023-05-25T06:42:21;96039.91;;;13.34;72.13
20860;BME280;10590;48.154;11.514;2023-05-25T06:47:49;96036.22;;;13.01;72.70
20860;BME280;10590;48.154;11.514;2023-05-25T06:53:11;96038.16;;;12.74;74.28
20860;BME280;10590;48.154;11.514;2023-05-25T06:58:33;96039.38;;;13.03;73.46
20860;BME280;10590;48.154;11.514;2023-05-25T07:03:56;96054.69;;;12.76;74.03
20860;BME280;10590;48.154;11.514;2023-05-25T07:09:18;96047.53;;;12.98;73.40
20860;BME280;10590;48.154;11.514;2023-05-25T07:14:40;96048.34;;;12.98;73.23
20860;BME280;10590;48.154;11.514;2023-05-25T07:20:05;96051.25;;;13.69;70.45
20860;BME280;10590;48.154;11.514;2023-05-25T07:25:28;96058.28;;;13.53;71.47
20860;BME280;10590;48.154;11.514;2023-05-25T07:30:50;96059.25;;;13.78;70.54
20860;BME280;10590;48.154;11.514;2023-05-25T07:36:13;96061.84;;;13.66;71.03
20860;BME280;10590;48.154;11.514;2023-05-25T07:41:35;96075.84;;;13.33;72.36
20860;BME280;10590;48.154;11.514;2023-05-25T07:46:56;96074.03;;;13.84;69.95
20860;BME280;10590;48.154;11.514;2023-05-25T07:52:20;96080.50;;;13.83;69.35
20860;BME280;10590;48.154;11.514;2023-05-25T07:57:42;96084.19;;;14.08;68.44
20860;BME280;10590;48.154;11.514;2023-05-25T08:03:03;96090.44;;;14.83;66.68
20860;BME280;10590;48.154;11.514;2023-05-25T08:08:27;96088.66;;;14.25;67.85
20860;BME280;10590;48.154;11.514;2023-05-25T08:13:48;96095.06;;;14.95;66.02
20860;BME280;10590;48.154;11.514;2023-05-25T08:19:10;96097.78;;;14.53;67.65
20860;BME280;10590;48.154;11.514;2023-05-25T08:24:33;96103.19;;;13.94;69.49
20860;BME280;10590;48.154;11.514;2023-05-25T08:29:55;96101.31;;;14.87;66.78
20860;BME280;10590;48.154;11.514;2023-05-25T08:35:17;96109.50;;;13.98;69.39
20860;BME280;10590;48.154;11.514;2023-05-25T08:40:41;96104.13;;;13.05;72.59
20860;BME280;10590;48.154;11.514;2023-05-25T08:46:05;96110.41;;;14.02;69.68
20860;BME280;10590;48.154;11.514;2023-05-25T08:51:28;96118.63;;;14.27;68.98
20860;BME280;10590;48.154;11.514;2023-05-25T08:57:14;96116.44;;;13.99;70.27
20860;BME280;10590;48.154;11.514;2023-05-25T09:02:40;96119.28;;;15.07;66.47
20860;BME280;10590;48.154;11.514;2023-05-25T09:08:04;96135.69;;;14.93;66.43
20860;BME280;10590;48.154;11.514;2023-05-25T09:13:28;96136.41;;;14.11;69.13
20860;BME280;10590;48.154;11.514;2023-05-25T09:18:50;96129.16;;;14.61;67.22
20860;BME280;10590;48.154;11.514;2023-05-25T09:24:11;96133.50;;;15.08;65.68
20860;BME280;10590;48.154;11.514;2023-05-25T09:29:35;96141.16;;;14.85;66.34
20860;BME280;10590;48.154;11.514;2023-05-25T09:35:06;96153.41;;;14.94;66.46
20860;BME280;10590;48.154;11.514;2023-05-25T09:40:27;96161.28;;;14.79;66.95
20860;BME280;10590;48.154;11.514;2023-05-25T09:45:52;96163.22;;;14.70;67.56
20860;BME280;10590;48.154;11.514;2023-05-25T09:51:15;96158.63;;;14.49;68.10
20860;BME280;10590;48.154;11.514;2023-05-25T09:56:37;96156.47;;;14.34;68.38
20860;BME280;10590;48.154;11.514;2023-05-25T10:02:00;96168.00;;;14.64;67.52
20860;BME280;10590;48.154;11.514;2023-05-25T10:07:23;96169.50;;;14.74;67.52
20860;BME280;10590;48.154;11.514;2023-05-25T10:12:49;96164.66;;;15.54;65.03
20860;BME280;10590;48.154;11.514;2023-05-25T10:18:15;96165.78;;;16.10;62.65
20860;BME280;10590;48.154;11.514;2023-05-25T10:23:43;96175.00;;;14.56;67.76
20860;BME280;10590;48.154;11.514;2023-05-25T10:29:08;96168.03;;;14.85;66.95
20860;BME280;10590;48.154;11.514;2023-05-25T10:34:32;96165.84;;;14.99;66.94
20860;BME280;10590;48.154;11.514;2023-05-25T10:39:56;96165.22;;;15.47;65.22
20860;BME280;10590;48.154;11.514;2023-05-25T10:45:18;96150.63;;;15.36;65.27
20860;BME280;10590;48.154;11.514;2023-05-25T10:50:49;96159.72;;;15.77;64.47
20860;BME280;10590;48.154;11.514;2023-05-25T10:56:11;96162.16;;;16.43;62.92
20860;BME280;10590;48.154;11.514;2023-05-25T11:01:48;96164.78;;;16.51;61.38
20860;BME280;10590;48.154;11.514;2023-05-25T11:07:14;96155.09;;;16.38;63.17
20860;BME280;10590;48.154;11.514;2023-05-25T11:12:37;96161.53;;;15.85;63.94
20860;BME280;10590;48.154;11.514;2023-05-25T11:18:00;96157.13;;;16.41;63.32
20860;BME280;10590;48.154;11.514;2023-05-25T11:23:23;96169.50;;;15.93;64.39
20860;BME280;10590;48.154;11.514;2023-05-25T11:28:45;96154.44;;;15.80;64.34
20860;BME280;10590;48.154;11.514;2023-05-25T11:34:07;96157.84;;;17.18;61.12
20860;BME280;10590;48.154;11.514;2023-05-25T11:39:32;96141.84;;;17.26;60.40
20860;BME280;10590;48.154;11.514;2023-05-25T11:44:54;96145.34;;;16.58;62.81
20860;BME280;10590;48.154;11.514;2023-05-25T11:50:16;96136.09;;;17.11;61.89
20860;BME280;10590;48.154;11.514;2023-05-25T11:55:39;96138.38;;;18.16;58.20
20860;BME280;10590;48.154;11.514;2023-05-25T12:01:13;96138.38;;;17.53;59.19
20860;BME280;10590;48.154;11.514;2023-05-25T12:06:36;96127.56;;;17.53;60.66
20860;BME280;10590;48.154;11.514;2023-05-25T12:12:02;96132.81;;;18.09;58.36
20860;BME280;10590;48.154;11.514;2023-05-25T12:17:24;96125.13;;;18.11;58.67
20860;BME280;10590;48.154;11.514;2023-05-25T12:22:46;96132.56;;;18.84;55.23
20860;BME280;10590;48.154;11.514;2023-05-25T12:28:10;96131.88;;;19.68;53.32
20860;BME280;10590;48.154;11.514;2023-05-25T12:33:32;96133.03;;;20.39;51.44
20860;BME280;10590;48.154;11.514;2023-05-25T12:38:58;96122.75;;;21.12;50.68
20860;BME280;10590;48.154;11.514;2023-05-25T12:44:25;96127.84;;;22.39;46.17
20860;BME280;10590;48.154;11.514;2023-05-25T12:49:49;96123.75;;;21.30;48.68
20860;BME280;10590;48.154;11.514;2023-05-25T12:55:22;96126.44;;;19.68;53.13
20860;BME280;10590;48.154;11.514;2023-05-25T13:00:49;96112.31;;;21.14;49.70
20860;BME280;10590;48.154;11.514;2023-05-25T13:06:11;96111.66;;;22.60;45.32
20860;BME280;10590;48.154;11.514;2023-05-25T13:11:33;96107.00;;;21.61;47.90
20860;BME280;10590;48.154;11.514;2023-05-25T13:16:56;96108.00;;;21.87;47.93
20860;BME280;10590;48.154;11.514;2023-05-25T13:22:18;96098.25;;;22.30;46.43
20860;BME280;10590;48.154;11.514;2023-05-25T13:27:42;96093.34;;;22.53;47.06
20860;BME280;10590;48.154;11.514;2023-05-25T13:33:05;96090.81;;;21.32;48.85
20860;BME280;10590;48.154;11.514;2023-05-25T13:38:29;96092.63;;;23.58;43.62
20860;BME280;10590;48.154;11.514;2023-05-25T13:43:51;96088.34;;;23.99;41.86
20860;BME280;10590;48.154;11.514;2023-05-25T13:49:14;96082.00;;;24.70;40.79
20860;BME280;10590;48.154;11.514;2023-05-25T13:54:39;96084.00;;;21.92;47.96
20860;BME280;10590;48.154;11.514;2023-05-25T14:00:01;96076.84;;;24.97;41.28
20860;BME280;10590;48.154;11.514;2023-05-25T14:05:24;96082.31;;;22.94;45.49
20860;BME280;10590;48.154;11.514;2023-05-25T14:10:46;96069.63;;;24.48;41.48
20860;BME280;10590;48.154;11.514;2023-05-25T14:16:08;96068.44;;;24.45;41.19
20860;BME280;10590;48.154;11.514;2023-05-25T14:21:32;96052.97;;;25.22;41.29
20860;BME280;10590;48.154;11.514;2023-05-25T14:26:54;96063.81;;;23.96;42.81
20860;BME280;10590;48.154;11.514;2023-05-25T14:32:16;96064.31;;;25.10;42.04
20860;BME280;10590;48.154;11.514;2023-05-25T14:37:40;96071.88;;;22.38;46.70
20860;BME280;10590;48.154;11.514;2023-05-25T14:43:02;96060.59;;;23.15;44.78
20860;BME280;10590;48.154;11.514;2023-05-25T14:48:25;96067.53;;;22.95;45.47
20860;BME280;10590;48.154;11.514;2023-05-25T14:53:48;96048.19;;;24.46;42.17
20860;BME280;10590;48.154;11.514;2023-05-25T14:59:12;96061.34;;;21.74;48.84
20860;BME280;10590;48.154;11.514;2023-05-25T15:04:34;96063.81;;;21.49;49.56
20860;BME280;10590;48.154;11.514;2023-05-25T15:09:57;96074.25;;;21.44;49.88
20860;BME280;10590;48.154;11.514;2023-05-25T15:15:19;96063.31;;;23.19;46.03
20860;BME280;10590;48.154;11.514;2023-05-25T15:20:41;96066.66;;;22.77;46.06
20860;BME280;10590;48.154;11.514;2023-05-25T15:26:04;96070.13;;;22.05;48.44
20860;BME280;10590;48.154;11.514;2023-05-25T15:31:27;96066.94;;;23.76;44.67
20860;BME280;10590;48.154;11.514;2023-05-25T15:36:49;96059.88;;;24.14;41.56
20860;BME280;10590;48.154;11.514;2023-05-25T15:42:12;96064.59;;;23.68;44.75
20860;BME280;10590;48.154;11.514;2023-05-25T15:47:34;96062.25;;;23.73;45.32
20860;BME280;10590;48.154;11.514;2023-05-25T15:52:56;96059.66;;;22.72;45.15
20860;BME280;10590;48.154;11.514;2023-05-25T15:58:19;96054.47;;;21.91;47.96
20860;BME280;10590;48.154;11.514;2023-05-25T16:03:41;96058.09;;;20.84;49.79
20860;BME280;10590;48.154;11.514;2023-05-25T16:09:05;96050.56;;;21.04;49.88
20860;BME280;10590;48.154;11.514;2023-05-25T16:14:29;96045.91;;;21.04;49.34
20860;BME280;10590;48.154;11.514;2023-05-25T16:19:52;96061.34;;;20.36;50.62
20860;BME280;10590;48.154;11.514;2023-05-25T16:25:14;96057.56;;;19.92;52.44
20860;BME280;10590;48.154;11.514;2023-05-25T16:30:37;96057.94;;;19.90;52.42
20860;BME280;10590;48.154;11.514;2023-05-25T16:35:59;96056.41;;;20.16;52.59
20860;BME280;10590;48.154;11.514;2023-05-25T16:41:21;96054.06;;;20.14;51.88
20860;BME280;10590;48.154;11.514;2023-05-25T16:46:44;96061.09;;;20.19;51.96
20860;BME280;10590;48.154;11.514;2023-05-25T16:52:06;96067.97;;;20.13;51.71
20860;BME280;10590;48.154;11.514;2023-05-25T16:57:29;96067.53;;;19.84;53.28
20860;BME280;10590;48.154;11.514;2023-05-25T17:02:52;96074.59;;;19.66;52.41
20860;BME280;10590;48.154;11.514;2023-05-25T17:08:14;96064.22;;;19.49;52.35
20860;BME280;10590;48.154;11.514;2023-05-25T17:13:36;96056.97;;;19.53;53.75
20860;BME280;10590;48.154;11.514;2023-05-25T17:18:59;96066.81;;;19.41;53.92
20860;BME280;10590;48.154;11.514;2023-05-25T17:24:21;96071.31;;;19.80;52.95
20860;BME280;10590;48.154;11.514;2023-05-25T17:29:43;96065.78;;;19.72;52.24
20860;BME280;10590;48.154;11.514;2023-05-25T17:35:07;96063.94;;;19.77;53.21
20860;BME280;10590;48.154;11.514;2023-05-25T17:40:29;96069.19;;;19.92;52.14
20860;BME280;10590;48.154;11.514;2023-05-25T17:45:51;96067.97;;;20.13;52.21
20860;BME280;10590;48.154;11.514;2023-05-25T17:51:16;96063.06;;;19.95;51.29
20860;BME280;10590;48.154;11.514;2023-05-25T17:56:39;96063.00;;;19.92;51.45
20860;BME280;10590;48.154;11.514;2023-05-25T18:02:02;96071.91;;;19.92;51.18
20860;BME280;10590;48.154;11.514;2023-05-25T18:07:32;96064.22;;;19.71;52.36
20860;BME280;10590;48.154;11.514;2023-05-25T18:12:54;96066.00;;;19.87;52.33
20860;BME280;10590;48.154;11.514;2023-05-25T18:18:16;96086.97;;;19.67;53.02
20860;BME280;10590;48.154;11.514;2023-05-25T18:23:41;96093.00;;;19.80;53.02
20860;BME280;10590;48.154;11.514;2023-05-25T18:29:03;96090.22;;;19.53;53.68
20860;BME280;10590;48.154;11.514;2023-05-25T18:34:25;96085.63;;;20.03;51.83
20860;BME280;10590;48.154;11.514;2023-05-25T18:39:51;96085.59;;;19.54;52.76
20860;BME280;10590;48.154;11.514;2023-05-25T18:45:13;96104.53;;;19.99;52.46
20860;BME280;10590;48.154;11.514;2023-05-25T18:50:35;96087.16;;;19.78;53.29
20860;BME280;10590;48.154;11.514;2023-05-25T18:56:00;96093.22;;;19.71;53.35
20860;BME280;10590;48.154;11.514;2023-05-25T19:01:22;96113.75;;;19.72;53.43
20860;BME280;10590;48.154;11.514;2023-05-25T19:06:46;96092.16;;;19.53;54.17
20860;BME280;10590;48.154;11.514;2023-05-25T19:12:09;96108.59;;;19.44;55.47
20860;BME280;10590;48.154;11.514;2023-05-25T19:17:31;96117.56;;;19.25;56.49
20860;BME280;10590;48.154;11.514;2023-05-25T19:22:53;96131.06;;;19.25;56.55
20860;BME280;10590;48.154;11.514;2023-05-25T19:28:16;96126.16;;;18.92;57.82
20860;BME280;10590;48.154;11.514;2023-05-25T19:33:38;96143.22;;;18.77;58.63
20860;BME280;10590;48.154;11.514;2023-05-25T19:39:00;96147.78;;;18.92;57.96
20860;BME280;10590;48.154;11.514;2023-05-25T19:44:23;96161.31;;;18.73;59.70
20860;BME280;10590;48.154;11.514;2023-05-25T19:49:45;96153.56;;;18.21;61.53
20860;BME280;10590;48.154;11.514;2023-05-25T19:55:08;96176.94;;;18.48;61.64
20860;BME280;10590;48.154;11.514;2023-05-25T20:00:31;96182.13;;;17.90;63.76
20860;BME280;10590;48.154;11.514;2023-05-25T20:05:53;96186.06;;;17.49;65.56
20860;BME280;10590;48.154;11.514;2023-05-25T20:11:16;96164.25;;;17.70;64.92
20860;BME280;10590;48.154;11.514;2023-05-25T20:16:39;96189.72;;;17.57;66.79
20860;BME280;10590;48.154;11.514;2023-05-25T20:22:01;96189.63;;;17.53;66.49
20860;BME280;10590;48.154;11.514;2023-05-25T20:27:23;96203.28;;;17.72;65.76
20860;BME280;10590;48.154;11.514;2023-05-25T20:32:47;96200.31;;;17.22;67.84
20860;BME280;10590;48.154;11.514;2023-05-25T20:38:09;96200.59;;;17.04;70.63
20860;BME280;10590;48.154;11.514;2023-05-25T20:43:31;96186.31;;;17.44;67.19
20860;BME280;10590;48.154;11.514;2023-05-25T20:48:54;96204.31;;;17.68;66.75
20860;BME280;10590;48.154;11.514;2023-05-25T20:54:17;96198.22;;;17.71;66.38
20860;BME280;10590;48.154;11.514;2023-05-25T20:59:40;96196.25;;;17.56;66.59
20860;BME280;10590;48.154;11.514;2023-05-25T21:05:05;96195.50;;;17.15;67.77
20860;BME280;10590;48.154;11.514;2023-05-25T21:10:27;96187.88;;;16.65;70.43
20860;BME280;10590;48.154;11.514;2023-05-25T21:15:50;96185.06;;;16.37;71.88
20860;BME280;10590;48.154;11.514;2023-05-25T21:21:14;96197.28;;;15.73;74.23
20860;BME280;10590;48.154;11.514;2023-05-25T21:26:36;96211.53;;;15.86;74.07
20860;BME280;10590;48.154;11.514;2023-05-25T21:31:59;96194.25;;;15.87;73.35
20860;BME280;10590;48.154;11.514;2023-05-25T21:37:22;96209.03;;;15.69;74.00
20860;BME280;10590;48.154;11.514;2023-05-25T21:42:44;96208.84;;;14.99;77.72
20860;BME280;10590;48.154;11.514;2023-05-25T21:48:07;96207.75;;;15.33;76.17
20860;BME280;10590;48.154;11.514;2023-05-25T21:53:30;96201.38;;;15.38;76.37
20860;BME280;10590;48.154;11.514;2023-05-25T21:58:52;96201.88;;;15.19;76.74
20860;BME280;10590;48.154;11.514;2023-05-25T22:04:14;96199.22;;;14.98;77.22
20860;BME280;10590;48.154;11.514;2023-05-25T22:09:38;96221.81;;;14.97;77.66
20860;BME280;10590;48.154;11.514;2023-05-25T22:15:00;96208.13;;;14.90;78.19
20860;BME280;10590;48.154;11.514;2023-05-25T22:20:22;96202.16;;;14.84;78.12
20860;BME280;10590;48.154;11.514;2023-05-25T22:25:45;96197.50;;;14.43;79.76
20860;BME280;10590;48.154;11.514;2023-05-25T22:31:07;96201.78;;;14.35;80.17
20860;BME280;10590;48.154;11.514;2023-05-25T22:36:29;96198.66;;;14.33;80.28
20860;BME280;10590;48.154;11.514;2023-05-25T22:41:53;96201.25;;;14.21;80.86
20860;BME280;10590;48.154;11.514;2023-05-25T22:47:14;96194.66;;;14.10;80.84
20860;BME280;10590;48.154;11.514;2023-05-25T22:52:36;96197.06;;;14.03;80.85
20860;BME280;10590;48.154;11.514;2023-05-25T22:58:02;96203.25;;;13.86;81.18
20860;BME280;10590;48.154;11.514;2023-05-25T23:03:26;96203.16;;;13.74;81.90
20860;BME280;10590;48.154;11.514;2023-05-25T23:08:49;96198.59;;;13.66;82.84
20860;BME280;10590;48.154;11.514;2023-05-25T23:14:12;96196.06;;;13.69;82.47
20860;BME280;10590;48.154;11.514;2023-05-25T23:19:34;96197.50;;;13.67;82.23
20860;BME280;10590;48.154;11.514;2023-05-25T23:24:58;96181.56;;;13.62;82.45
20860;BME280;10590;48.154;11.514;2023-05-25T23:30:22;96201.78;;;13.59;82.44
20860;BME280;10590;48.154;11.514;2023-05-25T23:35:44;96191.44;;;13.32;83.05
20860;BME280;10590;48.154;11.514;2023-05-25T23:41:06;96189.53;;;13.32;82.83
20860;BME280;10590;48.154;11.514;2023-05-25T23:46:29;96181.19;;;13.25;83.42
20860;BME280;10590;48.154;11.514;2023-05-25T23:51:51;96170.63;;;13.20;83.53
20860;BME280;10590;48.154;11.514;2023-05-25T23:57:13;96170.94;;;13.27;83.44
